sensor_id;sensor_type;location;lat;lon;timestamp;pressure;altitude;pressure_sealevel;temperature;humidity
20424;BME280;10371;49.042;8.002;2022-08-01T00:00:13;99864.78;;;21.85;73.22
20424;BME280;10371;49.042;8.002;2022-08-01T00:01:14;99864.97;;;21.83;73.44
20424;BME280;10371;49.042;8.002;2022-08-01T00:02:14;99861.09;;;21.79;73.51
20424;BME280;10371;49.042;8.002;2022-08-01T00:03:14;99865.38;;;21.80;73.38
20424;BME280;10371;49.042;8.002;2022-08-01T00:04:14;99869.03;;;21.79;73.67
20424;BME280;10371;49.042;8.002;2022-08-01T00:05:15;99864.94;;;21.77;73.85
20424;BME280;10371;49.042;8.002;2022-08-01T00:06:15;99865.75;;;21.77;73.81
20424;BME280;10371;49.042;8.002;2022-08-01T00:07:15;99865.13;;;21.75;73.89
20424;BME280;10371;49.042;8.002;2022-08-01T00:08:16;99867.78;;;21.75;73.85
20424;BME280;10371;49.042;8.002;2022-08-01T00:09:16;99873.09;;;21.75;73.76
20424;BME280;10371;49.042;8.002;2022-08-01T00:10:17;99869.84;;;21.73;73.92
20424;BME280;10371;49.042;8.002;2022-08-01T00:11:17;99866.34;;;21.73;74.02
20424;BME280;10371;49.042;8.002;2022-08-01T00:12:17;99872.03;;;21.70;73.96
20424;BME280;10371;49.042;8.002;2022-08-01T00:13:18;99872.84;;;21.70;73.94
20424;BME280;10371;49.042;8.002;2022-08-01T00:14:18;99873.06;;;21.69;74.14
20424;BME280;10371;49.042;8.002;2022-08-01T00:15:18;99875.88;;;21.67;73.96
20424;BME280;10371;49.042;8.002;2022-08-01T00:16:19;99872.81;;;21.63;74.03
20424;BME280;10371;49.042;8.002;2022-08-01T00:17:22;99867.34;;;21.65;74.01
20424;BME280;10371;49.042;8.002;2022-08-01T00:18:22;99874.66;;;21.63;73.91
20424;BME280;10371;49.042;8.002;2022-08-01T00:19:23;99881.97;;;21.61;74.23
20424;BME280;10371;49.042;8.002;2022-08-01T00:20:23;99880.34;;;21.60;74.46
20424;BME280;10371;49.042;8.002;2022-08-01T00:21:23;99872.78;;;21.57;74.79
20424;BME280;10371;49.042;8.002;2022-08-01T00:22:23;99871.13;;;21.56;74.60
20424;BME280;10371;49.042;8.002;2022-08-01T00:23:24;99877.88;;;21.58;74.42
20424;BME280;10371;49.042;8.002;2022-08-01T00:24:24;99881.72;;;21.56;74.71
20424;BME280;10371;49.042;8.002;2022-08-01T00:25:24;99878.47;;;21.54;74.75
20424;BME280;10371;49.042;8.002;2022-08-01T00:26:25;99887.41;;;21.53;74.81
20424;BME280;10371;49.042;8.002;2022-08-01T00:27:25;99888.44;;;21.52;74.85
20424;BME280;10371;49.042;8.002;2022-08-01T00:28:26;99885.16;;;21.50;75.16
20424;BME280;10371;49.042;8.002;2022-08-01T00:29:26;99884.53;;;21.48;75.22
20424;BME280;10371;49.042;8.002;2022-08-01T00:30:26;99896.97;;;21.47;75.37
20424;BME280;10371;49.042;8.002;2022-08-01T00:31:26;99886.75;;;21.44;75.42
20424;BME280;10371;49.042;8.002;2022-08-01T00:32:27;99884.09;;;21.44;75.61
20424;BME280;10371;49.042;8.002;2022-08-01T00:33:29;99894.91;;;21.42;75.78
20424;BME280;10371;49.042;8.002;2022-08-01T00:34:30;99896.91;;;21.40;75.74
20424;BME280;10371;49.042;8.002;2022-08-01T00:35:30;99890.81;;;21.40;75.99
20424;BME280;10371;49.042;8.002;2022-08-01T00:36:30;99891.00;;;21.38;75.72
20424;BME280;10371;49.042;8.002;2022-08-01T00:37:30;99885.03;;;21.36;75.75
20424;BME280;10371;49.042;8.002;2022-08-01T00:38:31;99888.69;;;21.35;75.79
20424;BME280;10371;49.042;8.002;2022-08-01T00:39:31;99893.19;;;21.35;76.22
20424;BME280;10371;49.042;8.002;2022-08-01T00:40:33;99891.53;;;21.34;76.37
20424;BME280;10371;49.042;8.002;2022-08-01T00:41:33;99894.16;;;21.34;76.17
20424;BME280;10371;49.042;8.002;2022-08-01T00:42:33;99890.72;;;21.33;76.17
20424;BME280;10371;49.042;8.002;2022-08-01T00:43:34;99891.09;;;21.30;76.57
20424;BME280;10371;49.042;8.002;2022-08-01T00:44:35;99897.22;;;21.31;76.56
20424;BME280;10371;49.042;8.002;2022-08-01T00:45:35;99888.66;;;21.29;76.68
20424;BME280;10371;49.042;8.002;2022-08-01T00:46:35;99889.22;;;21.24;76.95
20424;BME280;10371;49.042;8.002;2022-08-01T00:47:35;99894.53;;;21.24;77.15
20424;BME280;10371;49.042;8.002;2022-08-01T00:48:36;99893.06;;;21.22;77.24
20424;BME280;10371;49.042;8.002;2022-08-01T00:49:36;99890.84;;;21.25;77.12
20424;BME280;10371;49.042;8.002;2022-08-01T00:50:37;99887.59;;;21.23;77.37
20424;BME280;10371;49.042;8.002;2022-08-01T00:51:38;99883.28;;;21.22;77.35
20424;BME280;10371;49.042;8.002;2022-08-01T00:52:40;99888.59;;;21.22;77.47
20424;BME280;10371;49.042;8.002;2022-08-01T00:53:40;99885.31;;;21.20;77.48
20424;BME280;10371;49.042;8.002;2022-08-01T00:54:41;99888.59;;;21.22;77.48
20424;BME280;10371;49.042;8.002;2022-08-01T00:55:42;99886.97;;;21.21;77.40
20424;BME280;10371;49.042;8.002;2022-08-01T00:56:42;99886.16;;;21.20;77.55
20424;BME280;10371;49.042;8.002;2022-08-01T00:57:43;99886.97;;;21.21;77.71
20424;BME280;10371;49.042;8.002;2022-08-01T00:58:43;99887.94;;;21.20;77.72
20424;BME280;10371;49.042;8.002;2022-08-01T00:59:44;99889.78;;;21.19;78.08
20424;BME280;10371;49.042;8.002;2022-08-01T01:00:45;99889.34;;;21.16;78.17
20424;BME280;10371;49.042;8.002;2022-08-01T01:01:45;99879.16;;;21.13;78.32
20424;BME280;10371;49.042;8.002;2022-08-01T01:02:45;99890.56;;;21.13;78.19
20424;BME280;10371;49.042;8.002;2022-08-01T01:03:46;99888.13;;;21.12;78.25
20424;BME280;10371;49.042;8.002;2022-08-01T01:04:47;99884.84;;;21.10;78.33
20424;BME280;10371;49.042;8.002;2022-08-01T01:07:13;99886.22;;;21.06;78.79
20424;BME280;10371;49.042;8.002;2022-08-01T01:08:22;99892.91;;;21.02;78.89
20424;BME280;10371;49.042;8.002;2022-08-01T01:10:43;99890.63;;;20.98;78.89
20424;BME280;10371;49.042;8.002;2022-08-01T01:12:02;99888.38;;;20.95;78.88
20424;BME280;10371;49.042;8.002;2022-08-01T01:14:20;99885.47;;;20.90;79.12
20424;BME280;10371;49.042;8.002;2022-08-01T01:15:40;99887.47;;;20.88;79.50
20424;BME280;10371;49.042;8.002;2022-08-01T01:16:42;99880.94;;;20.84;79.66
20424;BME280;10371;49.042;8.002;2022-08-01T01:17:56;99890.88;;;20.82;79.59
20424;BME280;10371;49.042;8.002;2022-08-01T01:19:00;99892.91;;;20.80;79.75
20424;BME280;10371;49.042;8.002;2022-08-01T01:20:05;99886.97;;;20.78;80.23
20424;BME280;10371;49.042;8.002;2022-08-01T01:26:23;99885.03;;;20.65;81.04
20424;BME280;10371;49.042;8.002;2022-08-01T01:29:03;99891.88;;;20.60;81.28
20424;BME280;10371;49.042;8.002;2022-08-01T01:30:05;99885.31;;;20.56;81.54
20424;BME280;10371;49.042;8.002;2022-08-01T01:31:06;99890.81;;;20.54;81.67
20424;BME280;10371;49.042;8.002;2022-08-01T01:32:30;99885.84;;;20.51;81.99
20424;BME280;10371;49.042;8.002;2022-08-01T01:33:37;99891.31;;;20.49;81.93
20424;BME280;10371;49.042;8.002;2022-08-01T01:34:41;99883.75;;;20.46;82.04
20424;BME280;10371;49.042;8.002;2022-08-01T01:35:46;99887.44;;;20.45;82.46
20424;BME280;10371;49.042;8.002;2022-08-01T01:36:48;99884.94;;;20.44;82.71
20424;BME280;10371;49.042;8.002;2022-08-01T01:37:53;99886.13;;;20.41;82.89
20424;BME280;10371;49.042;8.002;2022-08-01T01:38:55;99884.50;;;20.40;83.03
20424;BME280;10371;49.042;8.002;2022-08-01T01:39:57;99885.69;;;20.38;83.01
20424;BME280;10371;49.042;8.002;2022-08-01T01:40:58;99888.53;;;20.36;83.21
20424;BME280;10371;49.042;8.002;2022-08-01T01:42:00;99881.78;;;20.34;83.23
20424;BME280;10371;49.042;8.002;2022-08-01T01:43:01;99888.28;;;20.31;83.42
20424;BME280;10371;49.042;8.002;2022-08-01T01:44:03;99879.72;;;20.29;83.24
20424;BME280;10371;49.042;8.002;2022-08-01T01:45:05;99891.28;;;20.28;83.32
20424;BME280;10371;49.042;8.002;2022-08-01T01:46:07;99890.66;;;20.26;83.57
20424;BME280;10371;49.042;8.002;2022-08-01T01:47:08;99888.38;;;20.23;83.90
20424;BME280;10371;49.042;8.002;2022-08-01T01:48:10;99897.31;;;20.22;84.09
20424;BME280;10371;49.042;8.002;2022-08-01T01:49:14;99892.38;;;20.19;84.26
20424;BME280;10371;49.042;8.002;2022-08-01T01:50:16;99890.75;;;20.18;84.47
20424;BME280;10371;49.042;8.002;2022-08-01T01:51:22;99893.56;;;20.16;84.81
20424;BME280;10371;49.042;8.002;2022-08-01T01:52:24;99897.22;;;20.15;84.99
20424;BME280;10371;49.042;8.002;2022-08-01T01:53:28;99890.28;;;20.14;84.99
20424;BME280;10371;49.042;8.002;2022-08-01T01:54:31;99889.47;;;20.14;84.94
20424;BME280;10371;49.042;8.002;2022-08-01T01:55:34;99895.78;;;20.13;85.22
20424;BME280;10371;49.042;8.002;2022-08-01T01:56:35;99891.50;;;20.12;85.35
20424;BME280;10371;49.042;8.002;2022-08-01T01:57:48;99895.13;;;20.11;85.42
20424;BME280;10371;49.042;8.002;2022-08-01T01:58:53;99891.03;;;20.08;85.44
20424;BME280;10371;49.042;8.002;2022-08-01T01:59:55;99893.66;;;20.08;85.61
20424;BME280;10371;49.042;8.002;2022-08-01T02:00:58;99894.69;;;20.07;85.68
20424;BME280;10371;49.042;8.002;2022-08-01T02:02:03;99885.28;;;20.04;85.94
20424;BME280;10371;49.042;8.002;2022-08-01T02:03:05;99886.31;;;20.03;85.82
20424;BME280;10371;49.042;8.002;2022-08-01T02:04:06;99892.59;;;20.02;85.75
20424;BME280;10371;49.042;8.002;2022-08-01T02:05:09;99895.44;;;20.01;85.90
20424;BME280;10371;49.042;8.002;2022-08-01T02:06:13;99894.63;;;20.00;85.69
20424;BME280;10371;49.042;8.002;2022-08-01T02:07:17;99893.59;;;20.01;85.38
20424;BME280;10371;49.042;8.002;2022-08-01T02:08:19;99893.97;;;19.98;85.61
20424;BME280;10371;49.042;8.002;2022-08-01T02:09:21;99888.84;;;19.97;85.92
20424;BME280;10371;49.042;8.002;2022-08-01T02:10:24;99896.16;;;19.95;85.92
20424;BME280;10371;49.042;8.002;2022-08-01T02:11:25;99898.31;;;19.91;85.92
20424;BME280;10371;49.042;8.002;2022-08-01T02:12:25;99897.69;;;19.89;85.92
20424;BME280;10371;49.042;8.002;2022-08-01T02:13:27;99891.13;;;19.85;86.43
20424;BME280;10371;49.042;8.002;2022-08-01T02:14:28;99895.97;;;19.81;86.44
20424;BME280;10371;49.042;8.002;2022-08-01T02:15:35;99896.50;;;19.77;86.57
20424;BME280;10371;49.042;8.002;2022-08-01T02:16:40;99909.44;;;19.72;87.04
20424;BME280;10371;49.042;8.002;2022-08-01T02:17:44;99899.75;;;19.64;87.57
20424;BME280;10371;49.042;8.002;2022-08-01T02:18:47;99911.84;;;19.58;87.90
20424;BME280;10371;49.042;8.002;2022-08-01T02:19:47;99909.41;;;19.57;88.10
20424;BME280;10371;49.042;8.002;2022-08-01T02:20:48;99908.94;;;19.53;88.40
20424;BME280;10371;49.042;8.002;2022-08-01T02:21:55;99909.13;;;19.52;88.41
20424;BME280;10371;49.042;8.002;2022-08-01T02:23:01;99908.66;;;19.48;88.82
20424;BME280;10371;49.042;8.002;2022-08-01T02:24:20;99914.91;;;19.47;89.27
20424;BME280;10371;49.042;8.002;2022-08-01T02:25:24;99910.66;;;19.46;89.66
20424;BME280;10371;49.042;8.002;2022-08-01T02:26:25;99907.34;;;19.44;89.78
20424;BME280;10371;49.042;8.002;2022-08-01T02:29:06;99905.09;;;19.41;90.07
20424;BME280;10371;49.042;8.002;2022-08-01T02:30:09;99917.31;;;19.42;90.14
20424;BME280;10371;49.042;8.002;2022-08-01T02:31:13;99907.72;;;19.41;90.34
20424;BME280;10371;49.042;8.002;2022-08-01T02:32:24;99905.44;;;19.38;90.44
20424;BME280;10371;49.042;8.002;2022-08-01T02:33:34;99912.38;;;19.39;90.40
20424;BME280;10371;49.042;8.002;2022-08-01T02:34:36;99911.72;;;19.37;90.21
20424;BME280;10371;49.042;8.002;2022-08-01T02:35:41;99907.44;;;19.36;90.19
20424;BME280;10371;49.042;8.002;2022-08-01T02:36:43;99911.06;;;19.35;90.23
20424;BME280;10371;49.042;8.002;2022-08-01T02:37:45;99905.63;;;19.36;90.25
20424;BME280;10371;49.042;8.002;2022-08-01T02:38:45;99898.91;;;19.34;90.89
20424;BME280;10371;49.042;8.002;2022-08-01T02:39:51;99906.81;;;19.34;91.03
20424;BME280;10371;49.042;8.002;2022-08-01T02:40:54;99903.53;;;19.32;91.04
20424;BME280;10371;49.042;8.002;2022-08-01T02:42:01;99904.53;;;19.31;91.02
20424;BME280;10371;49.042;8.002;2022-08-01T02:43:05;99907.50;;;19.28;91.34
20424;BME280;10371;49.042;8.002;2022-08-01T02:44:10;99906.69;;;19.27;91.33
20424;BME280;10371;49.042;8.002;2022-08-01T02:45:15;99906.06;;;19.25;91.06
20424;BME280;10371;49.042;8.002;2022-08-01T02:46:22;99902.78;;;19.23;91.12
20424;BME280;10371;49.042;8.002;2022-08-01T02:47:27;99901.97;;;19.23;91.14
20424;BME280;10371;49.042;8.002;2022-08-01T02:48:30;99909.03;;;19.22;91.21
20424;BME280;10371;49.042;8.002;2022-08-01T02:49:40;99908.22;;;19.22;91.08
20424;BME280;10371;49.042;8.002;2022-08-01T02:50:43;99903.94;;;19.20;91.34
20424;BME280;10371;49.042;8.002;2022-08-01T02:51:46;99905.94;;;19.18;91.65
20424;BME280;10371;49.042;8.002;2022-08-01T02:52:49;99910.56;;;19.16;91.76
20424;BME280;10371;49.042;8.002;2022-08-01T02:53:53;99910.75;;;19.15;91.98
20424;BME280;10371;49.042;8.002;2022-08-01T02:54:55;99913.56;;;19.13;92.07
20424;BME280;10371;49.042;8.002;2022-08-01T02:55:57;99915.56;;;19.11;92.28
20424;BME280;10371;49.042;8.002;2022-08-01T02:57:01;99915.91;;;19.08;92.53
20424;BME280;10371;49.042;8.002;2022-08-01T02:58:03;99916.75;;;19.09;92.49
20424;BME280;10371;49.042;8.002;2022-08-01T02:59:07;99928.13;;;19.09;92.63
20424;BME280;10371;49.042;8.002;2022-08-01T03:00:09;99922.19;;;19.07;92.70
20424;BME280;10371;49.042;8.002;2022-08-01T03:01:10;99928.28;;;19.08;92.93
20424;BME280;10371;49.042;8.002;2022-08-01T03:02:13;99917.09;;;19.06;93.01
20424;BME280;10371;49.042;8.002;2022-08-01T03:03:15;99923.00;;;19.08;93.02
20424;BME280;10371;49.042;8.002;2022-08-01T03:04:17;99923.19;;;19.06;92.82
20424;BME280;10371;49.042;8.002;2022-08-01T03:05:19;99925.66;;;19.08;92.75
20424;BME280;10371;49.042;8.002;2022-08-01T03:06:20;99924.81;;;19.07;92.97
20424;BME280;10371;49.042;8.002;2022-08-01T03:07:21;99924.38;;;19.04;92.89
20424;BME280;10371;49.042;8.002;2022-08-01T03:08:24;99930.09;;;19.07;93.25
20424;BME280;10371;49.042;8.002;2022-08-01T03:09:26;99927.31;;;19.09;93.28
20424;BME280;10371;49.042;8.002;2022-08-01T03:10:29;99926.28;;;19.10;93.11
20424;BME280;10371;49.042;8.002;2022-08-01T03:11:31;99931.41;;;19.11;92.95
20424;BME280;10371;49.042;8.002;2022-08-01T03:12:33;99922.31;;;19.14;92.64
20424;BME280;10371;49.042;8.002;2022-08-01T03:13:35;99923.13;;;19.14;92.57
20424;BME280;10371;49.042;8.002;2022-08-01T03:14:39;99921.97;;;19.17;92.27
20424;BME280;10371;49.042;8.002;2022-08-01T03:15:43;99918.47;;;19.16;92.14
20424;BME280;10371;49.042;8.002;2022-08-01T03:16:45;99921.78;;;19.18;92.09
20424;BME280;10371;49.042;8.002;2022-08-01T03:17:47;99921.78;;;19.18;92.15
20424;BME280;10371;49.042;8.002;2022-08-01T03:18:52;99917.66;;;19.16;92.00
20424;BME280;10371;49.042;8.002;2022-08-01T03:19:53;99927.06;;;19.18;91.91
20424;BME280;10371;49.042;8.002;2022-08-01T03:20:55;99926.88;;;19.20;91.92
20424;BME280;10371;49.042;8.002;2022-08-01T03:21:56;99920.97;;;19.18;91.67
20424;BME280;10371;49.042;8.002;2022-08-01T03:23:01;99920.78;;;19.19;91.62
20424;BME280;10371;49.042;8.002;2022-08-01T03:24:04;99920.59;;;19.21;91.72
20424;BME280;10371;49.042;8.002;2022-08-01T03:25:06;99918.97;;;19.20;91.80
20424;BME280;10371;49.042;8.002;2022-08-01T03:26:08;99914.66;;;19.19;91.91
20424;BME280;10371;49.042;8.002;2022-08-01T03:27:09;99927.06;;;19.18;92.03
20424;BME280;10371;49.042;8.002;2022-08-01T03:28:13;99918.03;;;19.13;92.00
20424;BME280;10371;49.042;8.002;2022-08-01T03:29:20;99924.47;;;19.10;92.21
20424;BME280;10371;49.042;8.002;2022-08-01T03:30:26;99922.84;;;19.09;92.42
20424;BME280;10371;49.042;8.002;2022-08-01T03:31:27;99927.31;;;19.09;92.50
20424;BME280;10371;49.042;8.002;2022-08-01T03:32:29;99921.19;;;19.08;92.72
20424;BME280;10371;49.042;8.002;2022-08-01T03:33:30;99924.81;;;19.07;92.77
20424;BME280;10371;49.042;8.002;2022-08-01T03:34:30;99923.00;;;19.08;92.82
20424;BME280;10371;49.042;8.002;2022-08-01T03:35:34;99928.94;;;19.10;92.54
20424;BME280;10371;49.042;8.002;2022-08-01T03:36:43;99925.47;;;19.09;93.15
20424;BME280;10371;49.042;8.002;2022-08-01T03:37:47;99926.47;;;19.08;93.29
20424;BME280;10371;49.042;8.002;2022-08-01T03:38:49;99924.81;;;19.07;93.48
20424;BME280;10371;49.042;8.002;2022-08-01T03:39:58;99923.19;;;19.06;93.39
20424;BME280;10371;49.042;8.002;2022-08-01T03:41:09;99924.19;;;19.05;93.53
20424;BME280;10371;49.042;8.002;2022-08-01T03:42:16;99924.19;;;19.05;93.82
20424;BME280;10371;49.042;8.002;2022-08-01T03:43:22;99933.91;;;19.05;93.91
20424;BME280;10371;49.042;8.002;2022-08-01T03:44:27;99925.34;;;19.03;93.92
20424;BME280;10371;49.042;8.002;2022-08-01T03:45:35;99933.44;;;19.01;94.38
20424;BME280;10371;49.042;8.002;2022-08-01T03:46:42;99920.44;;;19.00;94.54
20424;BME280;10371;49.042;8.002;2022-08-01T03:47:46;99918.13;;;18.96;94.68
20424;BME280;10371;49.042;8.002;2022-08-01T03:48:50;99925.06;;;18.97;94.83
20424;BME280;10371;49.042;8.002;2022-08-01T03:49:54;99927.06;;;18.95;94.95
20424;BME280;10371;49.042;8.002;2022-08-01T03:50:57;99921.94;;;18.94;95.09
20424;BME280;10371;49.042;8.002;2022-08-01T03:52:01;99923.78;;;18.93;94.99
20424;BME280;10371;49.042;8.002;2022-08-01T03:53:03;99927.41;;;18.92;95.02
20424;BME280;10371;49.042;8.002;2022-08-01T03:54:06;99925.59;;;18.93;95.04
20424;BME280;10371;49.042;8.002;2022-08-01T03:55:09;99922.13;;;18.92;95.16
20424;BME280;10371;49.042;8.002;2022-08-01T03:56:12;99930.06;;;18.92;95.38
20424;BME280;10371;49.042;8.002;2022-08-01T03:57:14;99924.78;;;18.92;95.44
20424;BME280;10371;49.042;8.002;2022-08-01T03:58:14;99925.75;;;18.91;95.37
20424;BME280;10371;49.042;8.002;2022-08-01T03:59:16;99926.09;;;18.88;95.53
20424;BME280;10371;49.042;8.002;2022-08-01T04:00:19;99925.47;;;18.86;95.50
20424;BME280;10371;49.042;8.002;2022-08-01T04:01:19;99926.09;;;18.88;95.86
20424;BME280;10371;49.042;8.002;2022-08-01T04:02:21;99928.59;;;18.90;95.93
20424;BME280;10371;49.042;8.002;2022-08-01T04:03:23;99928.75;;;18.88;95.79
20424;BME280;10371;49.042;8.002;2022-08-01T04:04:24;99924.94;;;18.91;95.94
20424;BME280;10371;49.042;8.002;2022-08-01T04:05:25;99932.69;;;18.92;95.87
20424;BME280;10371;49.042;8.002;2022-08-01T04:06:25;99922.59;;;18.96;95.66
20424;BME280;10371;49.042;8.002;2022-08-01T04:07:28;99923.91;;;19.00;95.63
20424;BME280;10371;49.042;8.002;2022-08-01T04:08:38;99920.25;;;19.01;95.74
20424;BME280;10371;49.042;8.002;2022-08-01T04:09:39;99914.16;;;19.01;95.76
20424;BME280;10371;49.042;8.002;2022-08-01T04:10:39;99921.72;;;19.04;96.06
20424;BME280;10371;49.042;8.002;2022-08-01T04:11:39;99924.81;;;19.07;95.84
20424;BME280;10371;49.042;8.002;2022-08-01T04:12:40;99918.53;;;19.08;95.98
20424;BME280;10371;49.042;8.002;2022-08-01T04:13:41;99913.25;;;19.08;95.93
20424;BME280;10371;49.042;8.002;2022-08-01T04:14:41;99919.19;;;19.10;95.89
20424;BME280;10371;49.042;8.002;2022-08-01T04:15:41;99920.84;;;19.11;95.89
20424;BME280;10371;49.042;8.002;2022-08-01T04:16:42;99923.31;;;19.13;95.82
20424;BME280;10371;49.042;8.002;2022-08-01T04:17:42;99920.00;;;19.11;95.94
20424;BME280;10371;49.042;8.002;2022-08-01T04:18:42;99928.78;;;19.11;95.89
20424;BME280;10371;49.042;8.002;2022-08-01T04:19:43;99923.13;;;19.14;96.09
20424;BME280;10371;49.042;8.002;2022-08-01T04:20:46;99923.13;;;19.14;95.96
20424;BME280;10371;49.042;8.002;2022-08-01T04:21:47;99923.31;;;19.13;96.15
20424;BME280;10371;49.042;8.002;2022-08-01T04:22:47;99916.19;;;19.13;96.19
20424;BME280;10371;49.042;8.002;2022-08-01T04:23:48;99921.31;;;19.15;95.93
20424;BME280;10371;49.042;8.002;2022-08-01T04:24:53;99916.84;;;19.15;96.06
20424;BME280;10371;49.042;8.002;2022-08-01T04:25:56;99918.47;;;19.16;95.93
20424;BME280;10371;49.042;8.002;2022-08-01T04:27:00;99922.13;;;19.15;96.34
20424;BME280;10371;49.042;8.002;2022-08-01T04:28:01;99920.97;;;19.18;96.40
20424;BME280;10371;49.042;8.002;2022-08-01T04:29:06;99917.16;;;19.20;96.37
20424;BME280;10371;49.042;8.002;2022-08-01T04:30:08;99921.53;;;19.28;96.10
20424;BME280;10371;49.042;8.002;2022-08-01T04:31:10;99923.81;;;19.31;95.97
20424;BME280;10371;49.042;8.002;2022-08-01T04:32:13;99926.91;;;19.35;96.05
20424;BME280;10371;49.042;8.002;2022-08-01T04:33:14;99923.94;;;19.38;95.90
20424;BME280;10371;49.042;8.002;2022-08-01T04:34:20;99924.38;;;19.41;95.86
20424;BME280;10371;49.042;8.002;2022-08-01T04:35:22;99931.59;;;19.48;95.71
20424;BME280;10371;49.042;8.002;2022-08-01T04:36:26;99932.06;;;19.51;95.44
20424;BME280;10371;49.042;8.002;2022-08-01T04:37:28;99932.34;;;19.56;95.26
20424;BME280;10371;49.042;8.002;2022-08-01T04:38:30;99929.00;;;19.62;94.83
20424;BME280;10371;49.042;8.002;2022-08-01T04:39:33;99932.75;;;19.68;94.65
20424;BME280;10371;49.042;8.002;2022-08-01T04:40:37;99928.56;;;19.74;94.33
20424;BME280;10371;49.042;8.002;2022-08-01T04:41:38;99930.94;;;19.83;93.90
20424;BME280;10371;49.042;8.002;2022-08-01T04:42:38;99938.06;;;19.98;93.31
20424;BME280;10371;49.042;8.002;2022-08-01T04:43:39;99925.22;;;20.09;92.68
20424;BME280;10371;49.042;8.002;2022-08-01T04:44:41;99938.25;;;20.26;91.96
20424;BME280;10371;49.042;8.002;2022-08-01T04:45:43;99933.94;;;20.40;91.14
20424;BME280;10371;49.042;8.002;2022-08-01T04:46:44;99928.81;;;20.53;90.14
20424;BME280;10371;49.042;8.002;2022-08-01T04:47:46;99931.19;;;20.63;89.26
20424;BME280;10371;49.042;8.002;2022-08-01T04:48:48;99932.16;;;20.77;88.63
20424;BME280;10371;49.042;8.002;2022-08-01T04:49:50;99934.75;;;20.91;88.01
20424;BME280;10371;49.042;8.002;2022-08-01T04:50:51;99934.25;;;21.03;87.34
20424;BME280;10371;49.042;8.002;2022-08-01T04:51:52;99934.75;;;21.13;86.76
20424;BME280;10371;49.042;8.002;2022-08-01T04:52:57;99930.78;;;21.24;86.37
20424;BME280;10371;49.042;8.002;2022-08-01T04:53:58;99934.75;;;21.34;85.85
20424;BME280;10371;49.042;8.002;2022-08-01T04:54:58;99937.06;;;21.44;85.51
20424;BME280;10371;49.042;8.002;2022-08-01T04:55:58;99930.63;;;21.53;84.93
20424;BME280;10371;49.042;8.002;2022-08-01T04:56:59;99931.69;;;21.59;84.46
20424;BME280;10371;49.042;8.002;2022-08-01T04:58:00;99932.56;;;21.66;84.30
20424;BME280;10371;49.042;8.002;2022-08-01T04:59:00;99941.56;;;21.72;83.55
20424;BME280;10371;49.042;8.002;2022-08-01T05:00:19;99933.72;;;21.85;83.44
20424;BME280;10371;49.042;8.002;2022-08-01T05:01:20;99938.41;;;21.90;82.78
20424;BME280;10371;49.042;8.002;2022-08-01T05:02:20;99933.78;;;21.98;82.55
20424;BME280;10371;49.042;8.002;2022-08-01T05:03:20;99929.16;;;22.07;82.31
20424;BME280;10371;49.042;8.002;2022-08-01T05:04:21;99936.72;;;22.17;82.18
20424;BME280;10371;49.042;8.002;2022-08-01T05:05:22;99936.59;;;22.25;81.84
20424;BME280;10371;49.042;8.002;2022-08-01T05:06:22;99940.09;;;22.32;81.56
20424;BME280;10371;49.042;8.002;2022-08-01T05:07:22;99937.06;;;22.35;81.21
20424;BME280;10371;49.042;8.002;2022-08-01T05:08:23;99936.25;;;22.35;81.39
20424;BME280;10371;49.042;8.002;2022-08-01T05:09:23;99935.22;;;22.36;81.09
20424;BME280;10371;49.042;8.002;2022-08-01T05:10:23;99941.75;;;22.40;80.95
20424;BME280;10371;49.042;8.002;2022-08-01T05:11:23;99942.38;;;22.42;80.66
20424;BME280;10371;49.042;8.002;2022-08-01T05:12:24;99933.84;;;22.46;80.45
20424;BME280;10371;49.042;8.002;2022-08-01T05:13:24;99936.31;;;22.55;80.38
20424;BME280;10371;49.042;8.002;2022-08-01T05:14:25;99934.09;;;22.65;80.13
20424;BME280;10371;49.042;8.002;2022-08-01T05:15:25;99934.75;;;22.73;79.75
20424;BME280;10371;49.042;8.002;2022-08-01T05:16:27;99941.28;;;22.84;79.16
20424;BME280;10371;49.042;8.002;2022-08-01T05:17:27;99935.59;;;22.94;79.06
20424;BME280;10371;49.042;8.002;2022-08-01T05:18:27;99940.75;;;23.02;78.94
20424;BME280;10371;49.042;8.002;2022-08-01T05:19:28;99931.97;;;23.08;78.59
20424;BME280;10371;49.042;8.002;2022-08-01T05:20:28;99926.47;;;23.16;78.38
20424;BME280;10371;49.042;8.002;2022-08-01T05:21:28;99929.53;;;23.27;78.03
20424;BME280;10371;49.042;8.002;2022-08-01T05:22:29;99932.81;;;23.35;77.49
20424;BME280;10371;49.042;8.002;2022-08-01T05:23:29;99930.53;;;23.46;77.19
20424;BME280;10371;49.042;8.002;2022-08-01T05:24:34;99931.97;;;23.61;76.60
20424;BME280;10371;49.042;8.002;2022-08-01T05:25:34;99939.34;;;23.73;76.42
20424;BME280;10371;49.042;8.002;2022-08-01T05:26:34;99938.09;;;23.82;76.21
20424;BME280;10371;49.042;8.002;2022-08-01T05:27:35;99937.28;;;23.88;75.76
20424;BME280;10371;49.042;8.002;2022-08-01T05:28:41;99939.72;;;23.96;75.39
20424;BME280;10371;49.042;8.002;2022-08-01T05:29:42;99940.50;;;24.03;74.87
20424;BME280;10371;49.042;8.002;2022-08-01T05:30:42;99939.28;;;24.13;74.79
20424;BME280;10371;49.042;8.002;2022-08-01T05:31:42;99939.84;;;24.15;74.66
20424;BME280;10371;49.042;8.002;2022-08-01T05:32:43;99936.97;;;24.29;74.08
20424;BME280;10371;49.042;8.002;2022-08-01T05:33:43;99937.72;;;24.37;73.70
20424;BME280;10371;49.042;8.002;2022-08-01T05:34:43;99945.91;;;24.48;73.70
20424;BME280;10371;49.042;8.002;2022-08-01T05:35:44;99938.53;;;24.50;73.48
20424;BME280;10371;49.042;8.002;2022-08-01T05:36:44;99939.53;;;24.56;72.75
20424;BME280;10371;49.042;8.002;2022-08-01T05:37:45;99937.47;;;24.58;72.68
20424;BME280;10371;49.042;8.002;2022-08-01T05:38:45;99942.41;;;24.55;72.70
20424;BME280;10371;49.042;8.002;2022-08-01T05:39:46;99936.91;;;24.49;72.59
20424;BME280;10371;49.042;8.002;2022-08-01T05:40:46;99938.56;;;24.44;73.06
20424;BME280;10371;49.042;8.002;2022-08-01T05:41:46;99943.44;;;24.40;73.16
20424;BME280;10371;49.042;8.002;2022-08-01T05:42:46;99945.31;;;24.33;73.14